Terminal Aerodrome Forecast
Issued by NWS Tallahassee, FL

Current Version | Previous Version | Text Only | Print | Product List | Glossary On
Versions: 1 2 3 4 5 6 7 8 9 10 11 12 13 14 15 16 17 18 19 20 21
107
FTUS42 KTAE 300527
TAFTLH
TAF
KTLH 300527Z 3006/0106 28003KT P6SM SKC
     FM300900 00000KT 2SM BR SCT006
     FM301400 14007KT P6SM SCT030
     FM301900 18008KT P6SM SCT050
     FM010200 18003KT P6SM SCT250=

USA.gov is the U.S. government's official web portal to all federal, state and local government web resources and services.